Time;durP1;ratioP1;P1;durP2;ratioP2;P2;SDS_P1;SDS_P2;PMS_P1;PMS_P2;Temp;Humidity;BMP_temperature;BMP_pressure;BME280_temperature;BME280_humidity;BME280_pressure;Samples;Min_cycle;Max_cycle;Signal;HPM_P1;HPM_P2
2022/08/25 00:01:29;;;;;;;12.32;4.18;;;21.90;99.90;;;;;;5032120;28;20172;-67
2022/08/25 00:03:55;;;;;;;9.55;4.55;;;21.80;99.90;;;;;;5030615;28;20046;-67
2022/08/25 00:06:21;;;;;;;14.98;5.68;;;21.70;99.90;;;;;;5031993;28;20549;-67
2022/08/25 00:08:47;;;;;;;9.77;4.32;;;21.70;99.90;;;;;;5032032;28;20065;-67
2022/08/25 00:11:16;;;;;;;7.00;4.10;;;21.70;99.90;;;;;;5031862;28;20053;-67
2022/08/25 00:13:45;;;;;;;8.18;3.92;;;21.70;99.90;;;;;;5031910;28;20037;-67
2022/08/25 00:16:12;;;;;;;7.43;4.15;;;21.80;99.90;;;;;;5030524;28;20562;-67
2022/08/25 00:18:41;;;;;;;5.68;3.67;;;21.70;99.90;;;;;;5030517;28;20065;-67
2022/08/25 00:21:07;;;;;;;7.45;3.83;;;21.70;99.90;;;;;;5030653;28;20076;-67
2022/08/25 00:23:33;;;;;;;8.63;4.18;;;21.70;99.90;;;;;;5031841;28;20102;-67
2022/08/25 00:26:00;;;;;;;6.60;3.80;;;21.60;99.90;;;;;;5031373;28;20430;-67
2022/08/25 00:28:25;;;;;;;6.32;3.90;;;21.50;99.90;;;;;;5031701;28;20095;-67
2022/08/25 00:30:51;;;;;;;5.47;3.20;;;21.60;99.90;;;;;;5031419;28;20049;-67
2022/08/25 00:33:17;;;;;;;12.32;3.85;;;21.50;99.90;;;;;;5031785;28;20046;-67
2022/08/25 00:35:43;;;;;;;6.53;3.58;;;21.50;99.90;;;;;;5030212;28;20061;-67
2022/08/25 00:38:10;;;;;;;9.77;3.78;;;21.50;99.90;;;;;;5031615;28;20456;-68
2022/08/25 00:40:38;;;;;;;6.80;3.70;;;21.50;99.90;;;;;;5030160;28;20038;-67
2022/08/25 00:43:05;;;;;;;7.30;3.70;;;21.40;99.90;;;;;;5031410;28;20087;-67
2022/08/25 00:45:31;;;;;;;13.05;3.70;;;21.40;99.90;;;;;;5030433;28;20068;-67
2022/08/25 00:47:57;;;;;;;7.90;3.63;;;21.40;99.90;;;;;;5031503;28;20156;-67
2022/08/25 00:50:23;;;;;;;11.55;3.60;;;21.50;99.90;;;;;;5031363;28;20462;-67
2022/08/25 00:52:53;;;;;;;4.63;3.42;;;21.50;99.90;;;;;;5029961;28;20046;-67
2022/08/25 00:55:38;;;;;;;7.65;4.00;;;21.40;99.90;;;;;;5030943;28;20072;-67
2022/08/25 00:58:13;;;;;;;10.88;3.17;;;21.40;99.90;;;;;;5029921;28;20045;-67
2022/08/25 01:00:44;;;;;;;6.55;3.42;;;21.40;99.90;;;;;;5029767;28;20523;-67
2022/08/25 01:03:11;;;;;;;4.23;3.63;;;21.40;99.90;;;;;;5029858;28;20045;-67
2022/08/25 01:05:38;;;;;;;9.57;3.85;;;21.40;99.90;;;;;;5030774;28;20387;-67
2022/08/25 01:08:06;;;;;;;5.82;3.22;;;21.40;99.90;;;;;;5030934;28;20446;-66
2022/08/25 01:10:34;;;;;;;6.93;3.67;;;21.40;99.90;;;;;;5030811;28;20037;-67
2022/08/25 01:13:11;;;;;;;8.35;3.15;;;21.40;99.90;;;;;;5031051;28;20037;-67
2022/08/25 01:15:37;;;;;;;8.18;3.45;;;21.30;99.90;;;;;;5030712;28;20033;-67
2022/08/25 01:18:03;;;;;;;8.15;3.50;;;21.30;99.90;;;;;;5030935;28;20067;-67
2022/08/25 01:20:31;;;;;;;8.80;3.50;;;21.30;99.90;;;;;;5030722;28;20029;-67
2022/08/25 01:22:58;;;;;;;7.10;3.90;;;21.20;99.90;;;;;;5029499;28;20049;-67
2022/08/25 01:26:00;;;;;;;5.93;3.55;;;21.20;99.90;;;;;;5030711;28;20120;-67
2022/08/25 01:28:26;;;;;;;6.15;3.58;;;21.20;99.90;;;;;;5030907;28;20053;-67
2022/08/25 01:30:52;;;;;;;6.47;3.15;;;21.10;99.90;;;;;;5030682;28;20041;-67
2022/08/25 01:33:17;;;;;;;9.93;3.70;;;21.10;99.90;;;;;;5030575;28;20045;-67
2022/08/25 01:35:44;;;;;;;5.97;3.42;;;21.10;99.90;;;;;;5030569;28;20044;-67
2022/08/25 01:38:10;;;;;;;9.93;3.38;;;21.00;99.90;;;;;;5029450;28;20040;-67
2022/08/25 01:40:38;;;;;;;9.18;2.95;;;21.00;99.90;;;;;;5030901;28;20049;-67
2022/08/25 01:43:10;;;;;;;7.32;2.92;;;21.00;99.90;;;;;;5030649;28;20048;-67
2022/08/25 01:45:37;;;;;;;9.52;3.63;;;21.00;99.90;;;;;;5030284;28;20448;-67
2022/08/25 01:48:04;;;;;;;6.88;3.45;;;21.00;99.90;;;;;;5029256;28;20718;-67
2022/08/25 01:50:30;;;;;;;11.15;3.45;;;21.00;99.90;;;;;;5030655;28;20406;-67
2022/08/25 01:53:02;;;;;;;4.95;3.10;;;21.00;99.90;;;;;;5030391;28;20046;-67
2022/08/25 01:55:28;;;;;;;9.00;3.33;;;20.90;99.90;;;;;;5030328;28;20076;-67
2022/08/25 01:57:54;;;;;;;8.73;3.72;;;20.90;99.90;;;;;;5030514;28;20043;-67
2022/08/25 02:00:22;;;;;;;7.93;3.40;;;20.80;99.90;;;;;;5030268;28;20037;-67
2022/08/25 02:02:47;;;;;;;4.97;3.00;;;20.80;99.90;;;;;;5033142;28;20046;-67
2022/08/25 02:05:15;;;;;;;8.85;3.10;;;20.80;99.90;;;;;;5034185;28;20052;-67
2022/08/25 02:07:41;;;;;;;10.15;3.72;;;20.80;99.90;;;;;;5034392;28;20126;-67
2022/08/25 02:10:08;;;;;;;5.43;3.30;;;20.80;99.90;;;;;;5034225;28;20429;-67
2022/08/25 02:12:35;;;;;;;4.70;2.90;;;20.80;99.90;;;;;;5034113;28;20468;-67
2022/08/25 02:15:04;;;;;;;5.07;3.50;;;20.70;99.90;;;;;;5034223;28;20041;-67
2022/08/25 02:17:30;;;;;;;4.93;3.40;;;20.80;99.90;;;;;;5034355;28;20065;-67
2022/08/25 02:19:56;;;;;;;6.60;3.58;;;20.70;99.90;;;;;;5033143;28;20049;-67
2022/08/25 02:22:22;;;;;;;6.03;3.28;;;20.70;99.90;;;;;;5032751;28;20041;-67
2022/08/25 02:24:48;;;;;;;5.95;3.47;;;20.70;99.90;;;;;;5032560;28;20111;-67
2022/08/25 02:27:14;;;;;;;4.70;3.13;;;20.60;99.90;;;;;;5033937;28;20057;-66
2022/08/25 02:29:40;;;;;;;8.40;3.30;;;20.60;99.90;;;;;;5034108;28;20056;-67
2022/08/25 02:32:06;;;;;;;4.47;3.00;;;20.60;99.90;;;;;;5033912;28;20095;-67
2022/08/25 02:34:32;;;;;;;5.38;3.25;;;20.60;99.90;;;;;;5033713;28;20643;-67
2022/08/25 02:36:57;;;;;;;6.32;3.13;;;20.60;99.90;;;;;;5033795;28;20117;-67
2022/08/25 02:39:23;;;;;;;6.72;3.20;;;20.60;99.90;;;;;;5033778;28;20527;-67
2022/08/25 02:41:49;;;;;;;10.52;3.63;;;20.60;99.90;;;;;;5032577;28;20053;-67
2022/08/25 02:44:15;;;;;;;7.15;3.17;;;20.60;99.90;;;;;;5033925;28;20041;-67
2022/08/25 02:46:40;;;;;;;4.03;3.03;;;20.60;99.90;;;;;;5033982;28;20037;-67
2022/08/25 02:49:06;;;;;;;5.60;3.35;;;20.50;99.90;;;;;;5033760;28;20415;-67
2022/08/25 02:51:33;;;;;;;8.23;3.42;;;20.50;99.90;;;;;;5033529;28;20128;-67
2022/08/25 02:54:00;;;;;;;5.03;3.50;;;20.50;99.90;;;;;;5033309;28;20037;-67
2022/08/25 02:56:27;;;;;;;7.47;3.38;;;20.40;99.90;;;;;;5032477;28;20132;-67
2022/08/25 02:58:54;;;;;;;7.47;3.67;;;20.40;99.90;;;;;;5033695;28;20045;-67
2022/08/25 03:01:20;;;;;;;6.75;2.90;;;20.40;99.90;;;;;;5033517;28;20048;-67
2022/08/25 03:03:47;;;;;;;6.50;3.08;;;20.40;99.90;;;;;;5033268;28;20098;-67
2022/08/25 03:06:15;;;;;;;7.10;3.00;;;20.40;99.90;;;;;;5033474;28;20069;-67
2022/08/25 03:08:42;;;;;;;7.40;3.22;;;20.40;99.90;;;;;;5033228;28;20040;-67
2022/08/25 03:11:09;;;;;;;4.55;3.13;;;20.40;99.90;;;;;;5031787;28;20594;-67
2022/08/25 03:13:35;;;;;;;9.00;3.50;;;20.40;99.90;;;;;;5032224;28;20128;-67
2022/08/25 03:16:02;;;;;;;9.95;3.53;;;20.40;99.90;;;;;;5033086;28;20116;-67
2022/08/25 03:18:28;;;;;;;11.40;3.55;;;20.30;99.90;;;;;;5033255;28;20037;-67
2022/08/25 03:20:53;;;;;;;7.45;3.28;;;20.30;99.90;;;;;;5032976;28;20557;-66
2022/08/25 03:23:19;;;;;;;6.53;3.85;;;20.30;99.90;;;;;;5031655;28;20064;-67
2022/08/25 03:28:31;;;;;;;11.05;3.25;;;20.20;99.90;;;;;;5033061;28;20124;-67
2022/08/25 03:31:00;;;;;;;7.95;3.45;;;20.20;99.90;;;;;;5032708;28;20538;-66
2022/08/25 03:33:28;;;;;;;6.10;3.25;;;20.20;99.90;;;;;;5032779;28;20045;-67
2022/08/25 03:35:54;;;;;;;9.68;3.72;;;20.10;99.90;;;;;;5031262;28;20048;-67
2022/08/25 03:38:20;;;;;;;10.70;3.15;;;20.10;99.90;;;;;;5031311;28;20071;-67
2022/08/25 03:40:45;;;;;;;4.97;3.35;;;20.10;99.90;;;;;;5032631;28;20041;-67
2022/08/25 03:43:12;;;;;;;7.03;3.80;;;20.10;99.90;;;;;;5032664;28;20052;-67
2022/08/25 03:45:42;;;;;;;7.70;3.60;;;20.10;99.90;;;;;;5032431;28;20614;-67
2022/08/25 03:48:08;;;;;;;5.40;3.03;;;20.00;99.90;;;;;;5015024;28;20053;-67
2022/08/25 03:50:34;;;;;;;10.35;3.70;;;20.00;99.90;;;;;;5032484;28;20045;-67
2022/08/25 03:53:00;;;;;;;9.88;3.60;;;20.00;99.90;;;;;;5031205;28;20389;-67
2022/08/25 03:55:26;;;;;;;4.65;3.15;;;19.90;99.90;;;;;;5031085;28;20053;-67
2022/08/25 03:57:53;;;;;;;7.45;3.60;;;20.00;99.90;;;;;;5032613;28;20040;-67
2022/08/25 04:00:20;;;;;;;5.40;3.30;;;20.00;99.90;;;;;;5032300;28;20087;-67
2022/08/25 04:02:46;;;;;;;9.85;3.83;;;20.00;99.90;;;;;;5032318;28;20045;-66
2022/08/25 04:05:12;;;;;;;6.47;3.80;;;20.00;99.90;;;;;;5031893;28;20128;-67
2022/08/25 04:07:38;;;;;;;7.88;3.47;;;19.90;99.90;;;;;;5032284;28;20041;-67
2022/08/25 04:10:09;;;;;;;6.68;3.65;;;20.00;99.90;;;;;;5032072;28;20563;-67
2022/08/25 04:12:35;;;;;;;5.35;3.50;;;19.90;99.90;;;;;;5031931;28;20484;-67
2022/08/25 04:15:03;;;;;;;5.15;3.35;;;19.90;99.90;;;;;;5031664;28;20083;-67
2022/08/25 04:17:28;;;;;;;5.65;3.53;;;19.90;99.90;;;;;;5032064;28;20049;-67
2022/08/25 04:19:54;;;;;;;7.88;3.58;;;19.90;99.90;;;;;;5031880;28;20037;-67
2022/08/25 04:22:21;;;;;;;6.60;3.50;;;19.90;99.90;;;;;;5031775;28;20087;-67
2022/08/25 04:24:46;;;;;;;5.72;3.53;;;19.90;99.90;;;;;;5030147;28;20121;-67
2022/08/25 04:27:13;;;;;;;9.10;3.65;;;19.90;99.90;;;;;;5029562;28;20148;-67
2022/08/25 04:29:38;;;;;;;5.00;3.35;;;19.90;99.90;;;;;;5027410;28;20045;-67
2022/08/25 04:32:04;;;;;;;6.38;3.20;;;19.90;99.90;;;;;;5027598;28;20037;-67
2022/08/25 04:34:30;;;;;;;6.80;3.67;;;19.90;99.90;;;;;;5030676;28;20033;-67
2022/08/25 04:36:56;;;;;;;4.53;3.13;;;19.90;99.90;;;;;;5029855;28;20052;-67
2022/08/25 04:39:21;;;;;;;5.82;3.45;;;19.90;99.90;;;;;;5030891;28;20168;-67
2022/08/25 04:41:48;;;;;;;5.72;3.47;;;19.80;99.90;;;;;;5030674;28;20395;-67
2022/08/25 04:44:15;;;;;;;7.72;3.47;;;19.90;99.90;;;;;;5031324;28;20510;-67
2022/08/25 04:46:40;;;;;;;8.88;3.40;;;19.80;99.90;;;;;;5031447;28;20037;-67
2022/08/25 04:49:06;;;;;;;8.45;3.33;;;19.80;99.90;;;;;;5031327;28;20124;-67
2022/08/25 04:51:38;;;;;;;10.35;3.40;;;19.80;99.90;;;;;;5031345;28;20503;-67
2022/08/25 04:54:07;;;;;;;8.40;3.83;;;19.80;99.90;;;;;;5031254;28;20435;-67
2022/08/25 04:56:34;;;;;;;8.30;3.25;;;19.80;99.90;;;;;;5031345;28;20092;-67
2022/08/25 04:59:05;;;;;;;6.90;4.00;;;19.80;99.90;;;;;;5029890;28;20041;-67
2022/08/25 05:01:32;;;;;;;5.88;3.50;;;19.80;99.90;;;;;;5031134;28;20037;-67
2022/08/25 05:04:00;;;;;;;6.78;3.83;;;19.80;99.90;;;;;;5031119;28;20033;-67
2022/08/25 05:06:27;;;;;;;9.25;4.05;;;19.90;99.90;;;;;;5031286;28;20065;-67
2022/08/25 05:08:53;;;;;;;8.20;4.00;;;19.80;99.90;;;;;;5029913;28;20045;-67
2022/08/25 05:11:19;;;;;;;9.32;4.13;;;19.80;99.90;;;;;;5030945;28;20041;-67
2022/08/25 05:13:47;;;;;;;5.35;3.63;;;19.80;99.90;;;;;;5029371;28;20045;-67
2022/08/25 05:16:13;;;;;;;4.60;4.05;;;19.90;99.90;;;;;;5030861;28;20037;-67
2022/08/25 05:18:39;;;;;;;5.45;3.70;;;19.90;99.90;;;;;;5031247;28;20041;-67
2022/08/25 05:21:08;;;;;;;9.82;4.03;;;19.90;99.90;;;;;;5031099;28;20052;-67
2022/08/25 05:23:35;;;;;;;9.43;4.13;;;20.00;99.90;;;;;;5030994;28;20038;-67
2022/08/25 05:26:04;;;;;;;6.32;3.88;;;20.20;99.90;;;;;;5030806;28;20052;-67
2022/08/25 05:28:29;;;;;;;6.22;3.70;;;20.20;99.90;;;;;;5030866;28;20064;-67
2022/08/25 05:31:00;;;;;;;5.53;3.92;;;20.30;99.90;;;;;;5029448;28;20034;-67
2022/08/25 05:33:26;;;;;;;6.30;3.72;;;20.40;99.90;;;;;;5030984;28;20033;-67
2022/08/25 05:35:51;;;;;;;7.85;4.32;;;20.50;99.90;;;;;;5030359;28;20044;-67
2022/08/25 05:38:17;;;;;;;12.18;3.95;;;20.60;99.90;;;;;;5030415;28;20041;-67
2022/08/25 05:40:43;;;;;;;11.10;4.30;;;20.70;99.90;;;;;;5030623;28;20052;-67
2022/08/25 05:43:09;;;;;;;7.90;4.45;;;20.70;99.90;;;;;;5030606;28;20038;-67
2022/08/25 05:45:35;;;;;;;9.90;4.43;;;20.80;99.90;;;;;;5030552;28;20085;-67
2022/08/25 05:48:01;;;;;;;7.22;4.00;;;20.90;99.90;;;;;;5030781;28;20442;-67
2022/08/25 05:50:27;;;;;;;6.55;3.90;;;20.90;99.90;;;;;;5029254;28;20047;-67
2022/08/25 05:52:53;;;;;;;8.73;4.03;;;20.90;99.90;;;;;;5030576;28;20638;-68
2022/08/25 05:55:19;;;;;;;9.57;4.00;;;21.00;99.90;;;;;;5030268;28;20099;-67
2022/08/25 05:57:44;;;;;;;7.57;3.85;;;21.10;99.90;;;;;;5029235;28;20420;-67
2022/08/25 06:00:11;;;;;;;6.32;3.80;;;21.20;99.90;;;;;;5030717;28;20037;-67
2022/08/25 06:02:42;;;;;;;4.78;3.65;;;21.20;99.90;;;;;;5030614;28;20045;-67
2022/08/25 06:05:15;;;;;;;9.57;4.00;;;21.30;99.90;;;;;;5030368;28;20049;-67
2022/08/25 06:07:41;;;;;;;5.63;4.20;;;21.30;99.90;;;;;;5030452;28;20057;-67
2022/08/25 06:10:10;;;;;;;8.48;4.35;;;21.30;99.90;;;;;;5030270;28;20063;-67
2022/08/25 06:12:36;;;;;;;7.93;4.35;;;21.40;99.90;;;;;;5012962;28;20129;-66
2022/08/25 06:15:03;;;;;;;11.55;4.65;;;21.40;99.90;;;;;;5030187;28;20499;-66
2022/08/25 06:17:30;;;;;;;7.43;4.25;;;21.50;99.90;;;;;;5030533;28;20116;-66
2022/08/25 06:19:55;;;;;;;12.38;4.13;;;21.50;99.90;;;;;;5030530;28;20045;-65
2022/08/25 06:22:21;;;;;;;8.77;4.60;;;21.60;99.90;;;;;;5031728;28;20045;-65
2022/08/25 06:24:47;;;;;;;7.57;4.10;;;21.60;99.90;;;;;;5029784;28;20049;-66
2022/08/25 06:27:13;;;;;;;8.23;4.10;;;21.60;99.90;;;;;;5030479;28;20053;-65
2022/08/25 06:29:38;;;;;;;5.35;4.57;;;21.70;99.90;;;;;;5030508;28;20041;-65
2022/08/25 06:32:04;;;;;;;7.75;4.60;;;21.70;99.90;;;;;;5030248;28;20053;-65
2022/08/25 06:34:30;;;;;;;6.20;4.15;;;21.80;99.90;;;;;;5030031;28;20060;-66
2022/08/25 06:36:56;;;;;;;7.03;4.47;;;21.80;99.90;;;;;;5030134;28;20045;-65
2022/08/25 06:39:23;;;;;;;4.97;4.03;;;21.80;99.90;;;;;;5030162;28;20045;-65
2022/08/25 06:41:55;;;;;;;8.60;4.65;;;21.90;99.90;;;;;;5030034;28;20077;-65
2022/08/25 06:44:22;;;;;;;15.98;4.10;;;21.90;99.90;;;;;;5029943;28;20439;-65
2022/08/25 06:46:49;;;;;;;12.70;4.53;;;21.80;99.90;;;;;;5028768;28;20049;-65
2022/08/25 06:49:15;;;;;;;10.02;4.60;;;21.80;99.90;;;;;;5032049;28;20123;-66
2022/08/25 06:51:41;;;;;;;12.70;4.38;;;21.80;99.90;;;;;;5033541;28;20507;-67
2022/08/25 06:54:09;;;;;;;6.07;3.88;;;21.80;99.90;;;;;;5033203;28;20045;-67
2022/08/25 06:56:35;;;;;;;9.55;4.45;;;21.90;99.90;;;;;;5032231;28;20069;-67
2022/08/25 06:59:02;;;;;;;9.90;4.70;;;21.90;99.90;;;;;;5032107;28;20063;-67
2022/08/25 07:01:28;;;;;;;5.65;4.07;;;22.00;99.90;;;;;;5032075;28;20049;-67
2022/08/25 07:03:58;;;;;;;9.18;4.55;;;22.10;99.90;;;;;;5032011;28;20526;-67
2022/08/25 07:06:34;;;;;;;10.07;4.57;;;22.10;99.90;;;;;;5033321;28;20037;-66
2022/08/25 07:09:00;;;;;;;9.88;4.43;;;22.20;99.90;;;;;;5033278;28;20037;-67
2022/08/25 07:11:25;;;;;;;11.27;4.82;;;22.20;99.90;;;;;;5033185;28;20329;-67
2022/08/25 07:13:51;;;;;;;6.82;3.92;;;22.30;99.90;;;;;;5031290;28;20087;-67
2022/08/25 07:16:19;;;;;;;10.27;3.97;;;22.30;99.90;;;;;;5016439;28;20045;-66
2022/08/25 07:18:46;;;;;;;8.80;4.40;;;22.40;99.90;;;;;;5033036;28;20033;-67
2022/08/25 07:21:13;;;;;;;11.68;4.25;;;22.40;99.90;;;;;;5032929;28;20042;-67
2022/08/25 07:23:39;;;;;;;7.85;4.32;;;22.50;99.90;;;;;;5033170;28;20041;-67
2022/08/25 07:26:13;;;;;;;6.43;3.97;;;22.50;99.90;;;;;;5022080;28;20073;-67
2022/08/25 07:28:40;;;;;;;11.27;5.43;;;22.60;99.90;;;;;;5011822;28;20057;-67
2022/08/25 07:31:06;;;;;;;8.20;4.40;;;22.70;99.90;;;;;;5012997;28;20041;-67
2022/08/25 07:33:31;;;;;;;7.80;4.65;;;22.70;99.90;;;;;;5012953;28;20045;-67
2022/08/25 07:35:57;;;;;;;6.18;4.10;;;22.70;99.90;;;;;;5011719;28;20515;-67
2022/08/25 07:38:22;;;;;;;7.38;4.70;;;22.80;99.90;;;;;;5013107;28;20037;-67
2022/08/25 07:40:53;;;;;;;6.57;4.38;;;23.00;99.90;;;;;;5012908;28;20070;-66
2022/08/25 07:43:20;;;;;;;10.57;3.90;;;23.00;99.90;;;;;;5012911;28;20077;-67
2022/08/25 07:45:46;;;;;;;9.45;4.63;;;23.00;99.90;;;;;;5011548;28;20052;-67
2022/08/25 07:48:12;;;;;;;6.38;4.55;;;23.10;99.90;;;;;;5012731;28;20034;-67
2022/08/25 07:50:41;;;;;;;13.35;4.18;;;23.20;99.90;;;;;;5012959;28;20099;-67
2022/08/25 07:53:08;;;;;;;5.95;3.83;;;23.30;99.90;;;;;;5011552;28;20050;-67
2022/08/25 07:55:37;;;;;;;10.55;4.15;;;23.50;99.90;;;;;;5012485;28;20045;-67
2022/08/25 07:58:05;;;;;;;6.97;3.90;;;23.60;99.90;;;;;;5012672;28;20041;-67
2022/08/25 08:00:33;;;;;;;8.75;4.20;;;23.60;99.90;;;;;;5011845;28;20120;-67
2022/08/25 08:03:08;;;;;;;8.00;3.50;;;23.60;99.90;;;;;;5012704;28;20048;-67
2022/08/25 08:05:35;;;;;;;8.82;4.60;;;23.80;99.90;;;;;;5012354;28;20037;-67
2022/08/25 08:08:01;;;;;;;8.65;4.43;;;23.90;99.90;;;;;;5012457;28;20046;-67
2022/08/25 08:10:27;;;;;;;10.77;4.10;;;24.00;99.90;;;;;;5012141;28;20053;-67
2022/08/25 08:12:53;;;;;;;10.18;4.05;;;24.00;99.90;;;;;;5012241;28;20046;-67
2022/08/25 08:15:19;;;;;;;10.02;3.85;;;24.20;99.90;;;;;;5011915;28;20480;-67
2022/08/25 08:17:45;;;;;;;9.07;3.97;;;24.10;99.90;;;;;;5019406;28;20064;-68
2022/08/25 08:20:12;;;;;;;4.65;3.75;;;24.30;99.90;;;;;;5032172;28;20398;-67
2022/08/25 08:22:40;;;;;;;7.50;4.47;;;24.30;99.90;;;;;;5030458;28;20052;-68
2022/08/25 08:25:09;;;;;;;13.38;4.22;;;24.40;99.90;;;;;;5027684;28;20041;-68
2022/08/25 08:27:35;;;;;;;9.10;4.50;;;24.40;99.90;;;;;;5017369;28;20056;-67
2022/08/25 08:30:03;;;;;;;7.20;4.07;;;24.30;99.90;;;;;;5012043;28;20038;-68
2022/08/25 08:32:28;;;;;;;9.68;3.95;;;24.50;99.90;;;;;;5011973;28;20054;-67
2022/08/25 08:34:54;;;;;;;9.13;3.97;;;24.60;99.90;;;;;;5011664;28;20048;-68
2022/08/25 08:37:21;;;;;;;11.27;4.35;;;24.80;99.90;;;;;;5011841;28;20038;-67
2022/08/25 08:39:47;;;;;;;8.40;4.07;;;24.90;99.90;;;;;;5011801;28;20045;-67
2022/08/25 08:42:37;;;;;;;9.93;4.20;;;25.00;99.90;;;;;;5010357;28;20587;-68
2022/08/25 08:45:23;;;;;;;9.77;4.07;;;25.10;99.90;;;;;;5011709;28;20042;-66
2022/08/25 08:48:33;;;;;;;11.25;4.32;;;25.00;99.90;;;;;;5011680;28;20042;-67
2022/08/25 08:51:11;;;;;;;8.40;3.50;;;25.20;99.90;;;;;;5006327;28;20046;-66
2022/08/25 08:53:51;;;;;;;7.00;3.45;;;25.30;99.90;;;;;;5011773;28;20037;-66
2022/08/25 08:56:28;;;;;;;10.55;3.88;;;25.40;99.90;;;;;;5011570;28;20084;-66
2022/08/25 08:59:00;;;;;;;11.57;3.42;;;25.50;99.90;;;;;;5011548;28;20045;-66
2022/08/25 09:01:30;;;;;;;10.38;3.67;;;25.60;99.90;;;;;;5011656;28;20038;-66
2022/08/25 09:04:07;;;;;;;8.20;3.78;;;25.60;99.90;;;;;;5011313;28;20049;-66
2022/08/25 09:06:42;;;;;;;9.30;3.47;;;25.80;99.90;;;;;;5011630;28;20085;-66
2022/08/25 09:09:12;;;;;;;6.25;3.60;;;25.90;99.90;;;;;;5011191;28;20049;-67
2022/08/25 09:11:50;;;;;;;9.85;3.67;;;25.90;99.90;;;;;;5010345;28;20108;-66
2022/08/25 09:14:45;;;;;;;8.60;3.83;;;26.00;99.90;;;;;;5011257;28;20121;-66
2022/08/25 09:17:38;;;;;;;7.82;3.47;;;26.20;99.90;;;;;;5011468;28;20117;-66
2022/08/25 09:20:19;;;;;;;10.75;3.20;;;26.10;99.90;;;;;;5003033;28;20508;-67
2022/08/25 09:23:00;;;;;;;4.65;3.53;;;26.40;99.90;;;;;;5011414;28;20052;-66
2022/08/25 09:25:44;;;;;;;9.48;3.33;;;26.20;99.90;;;;;;5009908;28;20427;-66
2022/08/25 09:28:40;;;;;;;5.70;2.80;;;26.30;99.90;;;;;;5011139;28;20053;-66
2022/08/25 09:31:18;;;;;;;5.28;3.22;;;26.40;99.90;;;;;;5011161;28;20165;-66
2022/08/25 09:33:44;;;;;;;9.27;3.80;;;26.50;99.90;;;;;;5009623;28;20084;-66
2022/08/25 09:36:10;;;;;;;5.30;3.33;;;26.50;99.90;;;;;;5009693;28;20042;-66
2022/08/25 09:38:36;;;;;;;8.43;3.33;;;26.70;99.90;;;;;;5015500;28;20511;-66
2022/08/25 09:41:02;;;;;;;6.40;3.15;;;26.70;99.90;;;;;;5018469;28;20038;-66
2022/08/25 09:43:29;;;;;;;6.75;3.42;;;27.00;99.90;;;;;;5025368;28;20466;-66
2022/08/25 09:46:11;;;;;;;4.47;3.15;;;26.90;99.30;;;;;;5012488;28;20045;-66
2022/08/25 09:48:52;;;;;;;7.78;2.95;;;26.80;99.90;;;;;;5029622;28;20042;-67
2022/08/25 09:51:33;;;;;;;5.40;3.10;;;27.00;99.40;;;;;;5030744;28;20042;-67
2022/08/25 09:54:01;;;;;;;4.85;2.67;;;27.10;99.30;;;;;;5030557;28;20279;-66
2022/08/25 09:56:30;;;;;;;8.00;3.25;;;27.20;99.10;;;;;;5030292;28;20069;-66
2022/08/25 09:59:26;;;;;;;7.90;2.80;;;27.20;99.40;;;;;;5021644;28;20117;-66
2022/08/25 10:01:56;;;;;;;12.25;3.58;;;27.40;98.60;;;;;;5022199;28;20447;-66
2022/08/25 10:04:27;;;;;;;5.25;3.05;;;27.40;97.50;;;;;;5011081;28;20037;-66
2022/08/25 10:06:53;;;;;;;7.28;2.95;;;27.40;97.20;;;;;;5011080;28;20403;-66
2022/08/25 10:09:26;;;;;;;5.50;2.95;;;27.40;97.70;;;;;;5010684;28;20053;-66
2022/08/25 10:11:51;;;;;;;6.03;3.20;;;27.50;97.70;;;;;;5010584;28;20089;-66
2022/08/25 10:14:23;;;;;;;8.43;3.13;;;27.60;96.70;;;;;;5010618;28;20076;-67
2022/08/25 10:16:49;;;;;;;5.85;2.90;;;27.50;97.60;;;;;;5010791;28;20046;-66
2022/08/25 10:19:20;;;;;;;4.85;2.83;;;27.50;96.40;;;;;;5016760;28;20090;-67
2022/08/25 10:22:02;;;;;;;7.28;2.97;;;27.50;96.40;;;;;;5020818;28;20064;-66
2022/08/25 10:24:28;;;;;;;6.38;3.08;;;27.60;97.30;;;;;;5024089;28;20064;-66
2022/08/25 10:27:03;;;;;;;7.32;3.10;;;27.70;97.40;;;;;;5023402;28;20396;-66
2022/08/25 10:30:03;;;;;;;7.07;3.08;;;27.50;95.80;;;;;;5022825;28;20046;-67
2022/08/25 10:32:37;;;;;;;4.43;2.95;;;27.70;95.40;;;;;;5025103;28;20049;-66
2022/08/25 10:35:21;;;;;;;6.85;2.97;;;27.70;96.10;;;;;;5022987;28;20068;-66
2022/08/25 10:38:08;;;;;;;6.93;2.80;;;27.80;95.30;;;;;;5022126;28;20403;-66
2022/08/25 10:40:43;;;;;;;5.55;2.63;;;27.90;94.50;;;;;;5012937;28;20052;-66
2022/08/25 10:43:32;;;;;;;6.72;2.78;;;27.80;93.40;;;;;;5016623;28;20053;-66
2022/08/25 10:46:22;;;;;;;4.65;2.80;;;27.80;94.10;;;;;;5023098;28;20088;-66
2022/08/25 10:49:00;;;;;;;5.10;2.70;;;27.80;94.50;;;;;;5024427;28;20048;-66
2022/08/25 10:51:30;;;;;;;6.20;3.00;;;28.00;94.60;;;;;;5029676;28;20049;-66
2022/08/25 10:54:15;;;;;;;5.00;2.72;;;28.00;94.50;;;;;;5033546;28;20042;-66
2022/08/25 10:56:47;;;;;;;9.95;2.60;;;28.10;94.90;;;;;;5033790;28;20118;-66
2022/08/25 10:59:45;;;;;;;5.47;2.65;;;28.00;94.00;;;;;;5033738;28;20045;-66
2022/08/25 11:02:16;;;;;;;7.35;2.97;;;28.10;93.90;;;;;;5026113;28;20057;-66
2022/08/25 11:04:58;;;;;;;4.57;2.50;;;28.00;94.20;;;;;;5033300;28;20042;-66
2022/08/25 11:07:39;;;;;;;11.15;2.38;;;28.10;93.60;;;;;;5015624;28;20396;-66
2022/08/25 11:10:10;;;;;;;4.15;2.33;;;28.10;92.50;;;;;;5033374;28;20069;-66
2022/08/25 11:12:44;;;;;;;3.33;2.42;;;28.10;91.50;;;;;;5033396;28;20086;-66
2022/08/25 11:15:16;;;;;;;11.63;2.50;;;28.20;92.60;;;;;;5033164;28;20041;-66
2022/08/25 11:17:55;;;;;;;11.20;3.13;;;28.20;92.80;;;;;;5033416;28;20041;-66
2022/08/25 11:20:27;;;;;;;6.95;2.63;;;28.30;93.40;;;;;;5032128;28;20476;-66
2022/08/25 11:23:05;;;;;;;;;;;28.40;93.40;;;;;;5033524;28;20045;-66
2022/08/25 11:25:36;;;;;;;7.15;2.42;;;28.50;92.20;;;;;;5032807;28;19917;-66
2022/08/25 11:28:09;;;;;;;5.57;2.35;;;28.50;92.70;;;;;;5033103;28;20515;-66
2022/08/25 11:30:37;;;;;;;4.22;2.42;;;28.60;92.20;;;;;;5031946;28;20384;-66
2022/08/25 11:33:03;;;;;;;6.03;2.80;;;28.60;92.70;;;;;;5032933;28;20052;-66
2022/08/25 11:35:37;;;;;;;4.82;2.63;;;28.70;92.10;;;;;;5022653;28;20523;-66
2022/08/25 11:38:32;;;;;;;6.95;2.95;;;28.70;91.60;;;;;;5022897;28;20034;-66
2022/08/25 11:41:15;;;;;;;6.25;2.35;;;28.60;91.30;;;;;;5013100;28;20041;-66
2022/08/25 11:44:04;;;;;;;3.53;2.92;;;28.70;91.30;;;;;;5012907;28;20404;-66
2022/08/25 11:46:55;;;;;;;8.95;2.85;;;28.70;90.60;;;;;;5013234;28;20393;-66
2022/08/25 11:49:51;;;;;;;3.70;2.17;;;28.70;90.80;;;;;;5013029;28;20381;-66
2022/08/25 11:52:31;;;;;;;7.78;2.60;;;28.70;91.80;;;;;;5012845;28;20393;-67
2022/08/25 11:55:15;;;;;;;7.80;2.20;;;28.80;91.70;;;;;;5012594;28;20044;-66
2022/08/25 11:57:43;;;;;;;4.43;2.70;;;28.70;90.30;;;;;;5012738;28;20045;-66
2022/08/25 12:00:14;;;;;;;5.88;2.60;;;28.90;91.40;;;;;;4995282;28;20049;-66
2022/08/25 12:02:46;;;;;;;4.70;2.30;;;28.90;89.10;;;;;;5012845;28;20046;-66
2022/08/25 12:05:40;;;;;;;6.22;2.63;;;28.90;89.90;;;;;;5012394;28;20038;-66
2022/08/25 12:11:02;;;;;;;4.68;2.50;;;28.90;90.50;;;;;;5012401;28;20053;-66
2022/08/25 12:13:40;;;;;;;5.05;2.60;;;29.00;90.40;;;;;;5012481;28;20042;-66
2022/08/25 12:16:06;;;;;;;6.30;2.60;;;29.00;90.00;;;;;;5011291;28;20487;-66
2022/08/25 12:18:32;;;;;;;6.10;2.85;;;29.00;90.10;;;;;;5012399;28;20046;-66
2022/08/25 12:20:58;;;;;;;3.78;2.88;;;28.90;90.50;;;;;;5012288;28;20041;-66
2022/08/25 12:23:34;;;;;;;4.72;2.45;;;29.10;90.00;;;;;;5012256;28;20535;-66
2022/08/25 12:26:16;;;;;;;5.35;2.80;;;28.90;89.10;;;;;;5012021;28;20033;-66
2022/08/25 12:28:59;;;;;;;3.70;2.60;;;29.20;90.00;;;;;;4994582;28;20057;-66
2022/08/25 12:31:58;;;;;;;4.68;2.70;;;29.10;90.10;;;;;;5011952;28;20728;-66
2022/08/25 12:34:30;;;;;;;5.13;2.50;;;29.10;90.60;;;;;;5011970;28;20077;-66
2022/08/25 12:37:00;;;;;;;4.97;2.70;;;29.30;89.50;;;;;;5012126;28;20084;-66
2022/08/25 12:39:34;;;;;;;4.68;2.80;;;29.30;89.60;;;;;;5012139;28;20483;-66
2022/08/25 12:42:06;;;;;;;11.35;2.55;;;29.30;88.70;;;;;;5011788;28;20109;-66
2022/08/25 12:44:43;;;;;;;;;;;29.20;89.80;;;;;;5012096;28;20053;-66
2022/08/25 12:47:25;;;;;;;4.03;2.70;;;29.40;90.10;;;;;;5011861;28;19921;-66
2022/08/25 12:49:52;;;;;;;3.97;2.53;;;29.30;88.40;;;;;;5011843;28;20046;-67
2022/08/25 12:52:22;;;;;;;5.53;2.65;;;29.40;89.40;;;;;;5011571;28;20049;-67
2022/08/25 12:54:56;;;;;;;3.90;2.60;;;29.30;90.00;;;;;;5028166;28;20052;-67
2022/08/25 12:57:42;;;;;;;6.15;3.00;;;29.30;89.40;;;;;;5029592;28;20037;-66
2022/08/25 13:00:22;;;;;;;7.55;2.95;;;29.20;88.10;;;;;;5029291;28;20087;-67
2022/08/25 13:03:11;;;;;;;4.15;2.65;;;29.30;89.00;;;;;;5027616;28;20053;-67
2022/08/25 13:06:04;;;;;;;6.22;3.03;;;29.40;89.10;;;;;;5023188;28;20124;-67
2022/08/25 13:08:56;;;;;;;4.30;2.85;;;29.40;89.90;;;;;;5028193;28;20094;-67